createdAt,value
2023-04-09T00:01:19.728Z,34.83
2023-04-09T00:03:46.486Z,35.45
2023-04-09T00:06:13.597Z,36.85
2023-04-09T00:08:40.160Z,35.33
2023-04-09T00:11:07.302Z,36.30
2023-04-09T00:13:39.238Z,34.97
2023-04-09T00:16:07.848Z,35.10
2023-04-09T00:18:34.567Z,34.97
2023-04-09T00:21:01.118Z,35.85
2023-04-09T00:23:27.781Z,36.50
2023-04-09T00:25:54.413Z,33.53
2023-04-09T00:28:20.984Z,35.28
2023-04-09T00:30:47.654Z,36.10
2023-04-09T00:33:14.451Z,36.25
2023-04-09T00:35:41.471Z,37.17
2023-04-09T00:38:08.354Z,36.92
2023-04-09T00:40:34.922Z,38.20
2023-04-09T00:43:02.480Z,38.38
2023-04-09T00:45:32.167Z,39.08
2023-04-09T00:47:59.359Z,36.83
2023-04-09T00:50:26.088Z,37.75
2023-04-09T00:52:52.892Z,36.97
2023-04-09T00:55:20.499Z,37.40
2023-04-09T00:57:47.093Z,39.15
2023-04-09T01:00:14.235Z,38.83
2023-04-09T01:02:41.455Z,39.80
2023-04-09T01:05:08.695Z,37.78
2023-04-09T01:07:49.185Z,37.63
2023-04-09T01:10:28.545Z,39.08
2023-04-09T01:13:12.551Z,34.83
2023-04-09T01:15:48.218Z,38.10
2023-04-09T01:18:28.553Z,39.22
2023-04-09T01:21:16.634Z,37.03
2023-04-09T01:24:16.782Z,37.15
2023-04-09T01:27:06.580Z,37.00
2023-04-09T01:29:53.663Z,38.90
2023-04-09T01:32:21.261Z,40.42
2023-04-09T01:34:48.296Z,35.92
2023-04-09T01:37:16.279Z,40.03
2023-04-09T01:39:43.339Z,41.10
2023-04-09T01:42:12.123Z,42.30
2023-04-09T01:44:40.078Z,42.13
2023-04-09T01:47:07.473Z,44.80
2023-04-09T01:49:37.954Z,39.10
2023-04-09T01:52:05.288Z,43.08
2023-04-09T01:54:31.988Z,41.85
2023-04-09T01:56:58.650Z,42.72
2023-04-09T01:59:25.764Z,45.88
2023-04-09T02:01:59.622Z,42.28
2023-04-09T02:04:33.413Z,43.42
2023-04-09T02:07:20.420Z,46.47
2023-04-09T02:09:48.079Z,44.92
2023-04-09T02:12:18.430Z,46.42
2023-04-09T02:14:46.922Z,46.72
2023-04-09T02:17:13.463Z,46.55
2023-04-09T02:19:44.647Z,47.30
2023-04-09T02:24:38.778Z,45.85
2023-04-09T02:27:06.173Z,44.25
2023-04-09T02:29:32.896Z,47.97
2023-04-09T02:31:59.585Z,46.45
2023-04-09T02:34:26.449Z,44.70
2023-04-09T02:36:53.214Z,46.72
2023-04-09T02:39:19.832Z,46.83
2023-04-09T02:41:46.382Z,46.42
2023-04-09T02:44:12.879Z,46.50
2023-04-09T02:46:40.594Z,47.42
2023-04-09T02:49:07.340Z,47.42
2023-04-09T02:51:36.886Z,46.25
2023-04-09T02:54:04.083Z,46.60
2023-04-09T02:56:30.714Z,46.30
2023-04-09T02:58:57.338Z,50.30
2023-04-09T03:01:24.283Z,46.53
2023-04-09T03:03:51.286Z,46.17
2023-04-09T03:06:18.572Z,46.85
2023-04-09T03:08:45.430Z,46.13
2023-04-09T03:11:12.185Z,47.97
2023-04-09T03:13:39.130Z,48.58
2023-04-09T03:16:06.100Z,45.10
2023-04-09T03:18:33.207Z,47.47
2023-04-09T03:20:59.852Z,50.78
2023-04-09T03:23:30.942Z,48.22
2023-04-09T03:26:05.947Z,50.60
2023-04-09T03:31:07.300Z,48.20
2023-04-09T03:33:37.383Z,48.38
2023-04-09T03:36:04.303Z,50.17
2023-04-09T03:38:45.101Z,50.33
2023-04-09T03:41:23.144Z,49.45
2023-04-09T03:43:50.169Z,51.28
2023-04-09T03:46:21.383Z,48.85
2023-04-09T03:48:48.901Z,50.70
2023-04-09T03:51:16.054Z,47.97
2023-04-09T03:53:48.855Z,47.25
2023-04-09T03:56:15.709Z,47.83
2023-04-09T03:58:42.908Z,48.42
2023-04-09T04:01:11.811Z,49.22
2023-04-09T04:03:52.870Z,46.28
2023-04-09T04:06:24.389Z,45.38
2023-04-09T04:09:11.249Z,43.88
2023-04-09T04:11:43.710Z,46.13
2023-04-09T04:14:11.071Z,44.72
2023-04-09T04:16:42.558Z,45.42
2023-04-09T04:19:11.270Z,48.47
2023-04-09T04:21:44.223Z,47.20
2023-04-09T04:24:11.314Z,45.85
2023-04-09T04:26:39.834Z,45.70
2023-04-09T04:29:07.114Z,44.00
2023-04-09T04:31:49.848Z,43.80
2023-04-09T04:34:19.933Z,43.03
2023-04-09T04:36:52.968Z,42.00
2023-04-09T04:39:20.500Z,41.13
2023-04-09T04:41:53.073Z,41.10
2023-04-09T04:44:23.361Z,43.13
2023-04-09T04:46:56.476Z,43.58
2023-04-09T04:49:23.115Z,45.33
2023-04-09T04:51:51.359Z,40.55
2023-04-09T04:54:18.214Z,41.03
2023-04-09T04:56:51.719Z,41.22
2023-04-09T04:59:42.115Z,39.47
2023-04-09T05:02:11.747Z,37.30
2023-04-09T05:04:49.377Z,37.15
2023-04-09T05:07:18.787Z,38.85
2023-04-09T05:09:53.868Z,43.38
2023-04-09T05:12:24.608Z,41.17
2023-04-09T05:14:53.090Z,39.00
2023-04-09T05:17:29.820Z,40.80
2023-04-09T05:19:59.312Z,40.60
2023-04-09T05:22:33.441Z,46.05
2023-04-09T05:25:00.401Z,48.78
2023-04-09T05:27:29.445Z,46.08
2023-04-09T05:30:01.095Z,45.28
2023-04-09T05:32:28.592Z,45.53
2023-04-09T05:34:55.599Z,44.03
2023-04-09T05:37:23.099Z,45.78
2023-04-09T05:39:52.034Z,43.58
2023-04-09T05:42:22.649Z,46.33
2023-04-09T05:45:12.124Z,46.45
2023-04-09T05:47:47.087Z,46.28
2023-04-09T05:50:18.762Z,46.55
2023-04-09T05:52:45.889Z,46.75
2023-04-09T05:55:15.643Z,46.78
2023-04-09T05:57:47.668Z,45.85
2023-04-09T06:00:15.844Z,46.65
2023-04-09T06:02:48.119Z,47.20
2023-04-09T06:05:15.131Z,46.60
2023-04-09T06:07:42.178Z,46.08
2023-04-09T06:10:09.569Z,43.58
2023-04-09T06:12:39.123Z,42.45
2023-04-09T06:15:06.279Z,39.33
2023-04-09T06:17:33.145Z,38.53
2023-04-09T06:19:59.750Z,36.13
2023-04-09T06:22:26.395Z,34.50
2023-04-09T06:24:52.996Z,31.70
2023-04-09T06:27:21.873Z,30.30
2023-04-09T06:29:48.505Z,29.75
2023-04-09T06:32:15.472Z,29.10
2023-04-09T06:34:42.462Z,27.23
2023-04-09T06:37:09.122Z,26.75
2023-04-09T06:39:36.490Z,27.35
2023-04-09T06:42:03.949Z,25.65
2023-04-09T06:44:41.016Z,24.40
2023-04-09T06:47:08.785Z,26.20
2023-04-09T06:49:35.836Z,25.42
2023-04-09T06:52:02.749Z,25.13
2023-04-09T06:54:29.303Z,25.52
2023-04-09T06:56:55.975Z,24.00
2023-04-09T06:59:22.648Z,24.23
2023-04-09T07:01:53.263Z,22.90
2023-04-09T07:04:21.241Z,23.13
2023-04-09T07:06:47.922Z,21.77
2023-04-09T07:09:14.532Z,20.85
2023-04-09T07:11:41.152Z,21.02
2023-04-09T07:14:07.693Z,20.27
2023-04-09T07:16:34.904Z,20.25
2023-04-09T07:19:02.081Z,20.08
2023-04-09T07:21:29.187Z,18.85
2023-04-09T07:23:56.337Z,18.42
2023-04-09T07:26:22.930Z,19.38
2023-04-09T07:28:49.582Z,17.75
2023-04-09T07:31:16.479Z,16.27
2023-04-09T07:33:43.216Z,17.27
2023-04-09T07:36:09.929Z,14.73
2023-04-09T07:38:36.596Z,13.75
2023-04-09T07:41:03.229Z,14.07
2023-04-09T07:43:31.973Z,14.10
2023-04-09T07:45:58.725Z,12.98
2023-04-09T07:48:25.246Z,12.57
2023-04-09T07:50:52.930Z,11.88
2023-04-09T07:53:19.761Z,12.82
2023-04-09T07:55:46.623Z,12.30
2023-04-09T07:58:13.300Z,12.45
2023-04-09T08:00:40.208Z,11.63
2023-04-09T08:03:07.112Z,11.52
2023-04-09T08:05:35.170Z,11.40
2023-04-09T08:08:01.935Z,12.00
2023-04-09T08:10:28.660Z,11.45
2023-04-09T08:12:55.624Z,11.00
2023-04-09T08:15:22.701Z,11.35
2023-04-09T08:17:49.577Z,10.57
2023-04-09T08:20:17.075Z,11.00
2023-04-09T08:22:43.789Z,10.82
2023-04-09T08:25:10.624Z,11.25
2023-04-09T08:27:37.268Z,10.20
2023-04-09T08:30:05.459Z,11.20
2023-04-09T08:32:32.260Z,11.35
2023-04-09T08:34:59.035Z,11.27
2023-04-09T08:37:26.697Z,12.18
2023-04-09T08:39:53.705Z,11.43
2023-04-09T08:42:21.862Z,11.68
2023-04-09T08:44:48.486Z,11.32
2023-04-09T08:47:15.542Z,11.85
2023-04-09T08:49:42.812Z,11.68
2023-04-09T08:52:09.451Z,12.57
2023-04-09T08:54:37.096Z,12.52
2023-04-09T08:57:06.950Z,11.88
2023-04-09T08:59:37.044Z,10.98
2023-04-09T09:02:11.870Z,12.70
2023-04-09T09:04:46.480Z,12.77
2023-04-09T09:07:14.118Z,12.48
2023-04-09T09:09:57.085Z,12.75
2023-04-09T09:12:36.200Z,11.23
2023-04-09T09:15:03.379Z,11.23
2023-04-09T09:17:30.230Z,10.20
2023-04-09T09:19:57.696Z,9.52
2023-04-09T09:22:25.081Z,8.45
2023-04-09T09:24:53.351Z,9.30
2023-04-09T09:27:37.220Z,8.80
2023-04-09T09:30:05.553Z,7.68
2023-04-09T09:32:33.549Z,7.28
2023-04-09T09:35:07.587Z,7.40
2023-04-09T09:37:34.601Z,7.68
2023-04-09T09:40:03.805Z,7.00
2023-04-09T09:42:31.845Z,7.95
2023-04-09T09:44:58.805Z,7.68
2023-04-09T09:47:28.121Z,7.72
2023-04-09T09:49:55.782Z,7.97
2023-04-09T09:52:26.762Z,7.50
2023-04-09T09:54:55.876Z,7.93
2023-04-09T09:57:24.900Z,6.90
2023-04-09T09:59:55.077Z,7.35
2023-04-09T10:02:24.225Z,7.10
2023-04-09T10:04:54.270Z,8.07
2023-04-09T10:07:22.498Z,7.45
2023-04-09T10:09:51.496Z,6.75
2023-04-09T10:12:23.581Z,7.90
2023-04-09T10:14:52.234Z,8.13
2023-04-09T10:17:20.201Z,7.00
2023-04-09T10:19:55.725Z,7.25
2023-04-09T10:22:26.253Z,7.22
2023-04-09T10:24:53.254Z,8.20
2023-04-09T10:27:20.695Z,8.48
2023-04-09T10:29:49.368Z,8.63
2023-04-09T10:32:26.404Z,8.32
2023-04-09T10:34:57.120Z,8.38
2023-04-09T10:37:28.021Z,8.17
2023-04-09T10:39:54.850Z,8.88
2023-04-09T10:42:27.353Z,8.50
2023-04-09T10:45:07.278Z,8.63
2023-04-09T10:47:35.840Z,8.20
2023-04-09T10:50:25.760Z,8.05
2023-04-09T10:52:54.190Z,7.45
2023-04-09T10:55:36.695Z,8.10
2023-04-09T10:58:13.074Z,7.65
2023-04-09T11:00:45.113Z,7.38
2023-04-09T11:05:52.412Z,7.00
2023-04-09T11:08:19.110Z,8.02
2023-04-09T11:10:49.037Z,7.75
2023-04-09T11:13:18.482Z,8.13
2023-04-09T11:15:48.700Z,7.38
2023-04-09T11:18:24.688Z,7.82
2023-04-09T11:20:59.230Z,7.55
2023-04-09T11:23:26.180Z,7.65
2023-04-09T11:25:53.469Z,7.70
2023-04-09T11:28:20.769Z,8.05
2023-04-09T11:30:47.508Z,7.55
2023-04-09T11:33:14.773Z,8.18
2023-04-09T11:35:42.323Z,8.48
2023-04-09T11:38:10.378Z,8.45
2023-04-09T11:40:43.676Z,8.25
2023-04-09T11:43:15.709Z,9.07
2023-04-09T11:45:42.563Z,8.40
2023-04-09T11:48:09.238Z,7.65
2023-04-09T11:50:36.709Z,7.20
2023-04-09T11:53:18.744Z,7.65
2023-04-09T11:55:48.222Z,8.05
2023-04-09T11:58:14.966Z,8.18
2023-04-09T12:00:41.728Z,7.63
2023-04-09T12:03:10.539Z,7.30
2023-04-09T12:05:39.810Z,7.60
2023-04-09T12:08:09.092Z,7.82
2023-04-09T12:10:37.290Z,7.55
2023-04-09T12:13:07.899Z,7.65
2023-04-09T12:15:36.164Z,7.72
2023-04-09T12:18:03.825Z,8.57
2023-04-09T12:20:35.656Z,7.68
2023-04-09T12:23:04.102Z,7.03
2023-04-09T12:25:36.601Z,7.25
2023-04-09T12:28:05.713Z,6.68
2023-04-09T12:30:33.686Z,6.38
2023-04-09T12:33:00.489Z,7.80
2023-04-09T12:35:27.209Z,7.93
2023-04-09T12:37:53.837Z,7.63
2023-04-09T12:40:20.882Z,7.65
2023-04-09T12:42:57.668Z,7.82
2023-04-09T12:45:25.853Z,7.93
2023-04-09T12:47:53.270Z,8.40
2023-04-09T12:50:19.972Z,8.38
2023-04-09T12:52:47.010Z,9.05
2023-04-09T12:55:14.874Z,9.88
2023-04-09T12:57:46.958Z,9.30
2023-04-09T13:00:18.399Z,8.57
2023-04-09T13:05:12.725Z,8.07
2023-04-09T13:07:42.902Z,7.65
2023-04-09T13:10:10.405Z,7.57
2023-04-09T13:12:37.767Z,7.35
2023-04-09T13:15:04.818Z,7.93
2023-04-09T13:17:31.460Z,8.70
2023-04-09T13:19:58.201Z,9.27
2023-04-09T13:22:24.856Z,8.55
2023-04-09T13:24:52.786Z,8.00
2023-04-09T13:27:19.861Z,7.90
2023-04-09T13:29:46.602Z,8.50
2023-04-09T13:32:13.271Z,7.75
2023-04-09T13:34:40.545Z,7.10
2023-04-09T13:37:07.282Z,8.18
2023-04-09T13:39:34.083Z,8.73
2023-04-09T13:42:07.321Z,7.72
2023-04-09T13:44:50.736Z,7.75
2023-04-09T13:47:17.656Z,7.53
2023-04-09T13:49:44.940Z,8.07
2023-04-09T13:52:11.728Z,8.63
2023-04-09T13:54:38.446Z,7.90
2023-04-09T13:57:05.206Z,7.50
2023-04-09T13:59:32.138Z,7.80
2023-04-09T14:01:58.805Z,7.68
2023-04-09T14:04:25.534Z,7.97
2023-04-09T14:06:52.408Z,8.63
2023-04-09T14:09:19.046Z,8.20
2023-04-09T14:11:45.636Z,8.10
2023-04-09T14:14:12.402Z,8.30
2023-04-09T14:16:39.409Z,7.53
2023-04-09T14:19:06.451Z,7.72
2023-04-09T14:21:33.755Z,7.22
2023-04-09T14:24:00.510Z,7.03
2023-04-09T14:26:28.910Z,7.57
2023-04-09T14:28:55.849Z,7.45
2023-04-09T14:31:22.953Z,7.57
2023-04-09T14:33:49.757Z,6.82
2023-04-09T14:36:18.080Z,7.05
2023-04-09T14:38:44.784Z,6.88
2023-04-09T14:41:11.537Z,7.15
2023-04-09T14:43:38.175Z,6.72
2023-04-09T14:46:24.296Z,7.38
2023-04-09T14:48:51.159Z,7.35
2023-04-09T14:51:18.275Z,7.80
2023-04-09T14:53:44.944Z,7.70
2023-04-09T14:56:12.574Z,6.75
2023-04-09T14:58:39.314Z,7.03
2023-04-09T15:01:06.278Z,7.28
2023-04-09T15:03:33.159Z,6.47
2023-04-09T15:06:00.515Z,6.88
2023-04-09T15:08:27.652Z,6.50
2023-04-09T15:10:54.514Z,6.75
2023-04-09T15:13:21.297Z,6.72
2023-04-09T15:15:47.915Z,6.10
2023-04-09T15:18:14.666Z,6.50
2023-04-09T15:20:43.372Z,6.72
2023-04-09T15:23:11.037Z,6.15
2023-04-09T15:25:38.087Z,6.80
2023-04-09T15:28:05.611Z,7.20
2023-04-09T15:30:32.487Z,7.85
2023-04-09T15:32:59.154Z,7.22
2023-04-09T15:35:29.315Z,6.88
2023-04-09T15:37:56.880Z,6.78
2023-04-09T15:40:23.577Z,6.25
2023-04-09T15:42:50.317Z,5.78
2023-04-09T15:45:17.764Z,5.80
2023-04-09T15:47:46.070Z,5.95
2023-04-09T15:50:13.925Z,6.53
2023-04-09T15:52:40.761Z,6.47
2023-04-09T15:55:07.630Z,6.78
2023-04-09T15:57:34.245Z,6.05
2023-04-09T16:00:03.597Z,6.75
2023-04-09T16:02:31.227Z,7.57
2023-04-09T16:04:57.957Z,7.60
2023-04-09T16:07:25.052Z,6.50
2023-04-09T16:09:51.868Z,6.40
2023-04-09T16:12:18.511Z,6.38
2023-04-09T16:14:45.183Z,5.80
2023-04-09T16:17:12.064Z,5.93
2023-04-09T16:19:38.646Z,6.40
2023-04-09T16:22:05.246Z,5.82
2023-04-09T16:24:32.352Z,6.55
2023-04-09T16:26:59.099Z,6.35
2023-04-09T16:29:25.624Z,6.30
2023-04-09T16:31:52.920Z,6.40
2023-04-09T16:34:20.018Z,6.32
2023-04-09T16:36:46.701Z,6.60
2023-04-09T16:39:15.108Z,5.47
2023-04-09T16:41:41.710Z,6.82
2023-04-09T16:44:08.270Z,6.38
2023-04-09T16:46:35.123Z,6.30
2023-04-09T16:49:01.859Z,6.18
2023-04-09T16:51:28.497Z,6.13
2023-04-09T16:53:55.146Z,6.25
2023-04-09T16:56:21.700Z,5.25
2023-04-09T16:58:48.437Z,6.00
2023-04-09T17:01:15.468Z,5.88
2023-04-09T17:03:42.288Z,5.57
2023-04-09T17:06:08.988Z,5.72
2023-04-09T17:08:35.641Z,5.90
2023-04-09T17:11:02.700Z,5.72
2023-04-09T17:13:31.468Z,5.63
2023-04-09T17:15:58.225Z,5.20
2023-04-09T17:18:25.506Z,5.78
2023-04-09T17:20:52.539Z,5.47
2023-04-09T17:23:19.184Z,6.50
2023-04-09T17:25:47.277Z,5.85
2023-04-09T17:28:14.000Z,5.55
2023-04-09T17:30:40.724Z,15.00
2023-04-09T17:33:07.400Z,9.57
2023-04-09T17:35:34.287Z,76.97
2023-04-09T17:38:01.767Z,8.65
2023-04-09T17:40:28.461Z,5.82
2023-04-09T17:42:56.033Z,5.40
2023-04-09T17:45:30.051Z,5.50
2023-04-09T17:47:57.087Z,5.50
2023-04-09T17:50:23.827Z,4.93
2023-04-09T17:52:50.589Z,5.80
2023-04-09T17:55:17.280Z,4.80
2023-04-09T17:57:43.876Z,4.95
2023-04-09T18:00:11.226Z,4.80
2023-04-09T18:02:46.055Z,5.20
2023-04-09T18:05:13.122Z,4.78
2023-04-09T18:07:39.889Z,4.65
2023-04-09T18:10:06.839Z,5.05
2023-04-09T18:12:33.465Z,4.40
2023-04-09T18:15:00.207Z,5.70
2023-04-09T18:17:27.881Z,6.13
2023-04-09T18:19:58.097Z,4.97
2023-04-09T18:22:25.780Z,4.90
2023-04-09T18:24:53.355Z,6.70
2023-04-09T18:27:21.092Z,5.10
2023-04-09T18:29:49.249Z,9.77
2023-04-09T18:32:16.950Z,8.18
2023-04-09T18:34:45.049Z,5.75
2023-04-09T18:37:12.216Z,6.25
2023-04-09T18:39:39.040Z,5.65
2023-04-09T18:42:06.611Z,7.22
2023-04-09T18:44:36.243Z,6.90
2023-04-09T18:47:09.560Z,5.78
2023-04-09T18:49:36.803Z,6.53
2023-04-09T18:52:06.086Z,6.53
2023-04-09T18:54:34.896Z,7.00
2023-04-09T18:57:04.211Z,7.05
2023-04-09T18:59:34.933Z,6.00
2023-04-09T19:02:05.565Z,7.05
2023-04-09T19:04:39.192Z,6.65
2023-04-09T19:07:06.300Z,5.82
2023-04-09T19:09:32.896Z,5.22
2023-04-09T19:11:59.550Z,6.50
2023-04-09T19:14:26.236Z,6.30
2023-04-09T19:16:53.970Z,10.65
2023-04-09T19:19:20.547Z,7.75
2023-04-09T19:21:47.102Z,6.65
2023-04-09T19:24:13.861Z,6.63
2023-04-09T19:26:40.914Z,6.25
2023-04-09T19:29:08.047Z,7.05
2023-04-09T19:31:34.634Z,7.10
2023-04-09T19:34:01.295Z,8.05
2023-04-09T19:36:28.386Z,10.05
2023-04-09T19:38:55.360Z,12.27
2023-04-09T19:41:22.262Z,11.35
2023-04-09T19:43:48.966Z,11.73
2023-04-09T19:46:15.888Z,11.02
2023-04-09T19:48:42.629Z,10.35
2023-04-09T19:51:16.246Z,11.43
2023-04-09T19:53:43.868Z,10.82
2023-04-09T19:56:11.673Z,12.40
2023-04-09T19:58:38.398Z,12.57
2023-04-09T20:01:05.340Z,10.35
2023-04-09T20:03:32.983Z,11.82
2023-04-09T20:05:59.736Z,9.00
2023-04-09T20:08:26.631Z,8.80
2023-04-09T20:10:55.843Z,8.45
2023-04-09T20:13:33.433Z,9.52
2023-04-09T20:16:00.288Z,8.80
2023-04-09T20:18:27.872Z,8.15
2023-04-09T20:20:54.689Z,7.43
2023-04-09T20:23:21.198Z,7.90
2023-04-09T20:25:53.259Z,7.45
2023-04-09T20:28:19.826Z,7.47
2023-04-09T20:30:46.476Z,7.85
2023-04-09T20:33:13.044Z,7.40
2023-04-09T20:35:39.760Z,6.97
2023-04-09T20:38:06.338Z,6.93
2023-04-09T20:40:36.188Z,7.47
2023-04-09T20:43:02.826Z,7.53
2023-04-09T20:45:32.993Z,6.88
2023-04-09T20:47:59.764Z,6.68
2023-04-09T20:50:26.520Z,7.35
2023-04-09T20:52:53.138Z,6.93
2023-04-09T20:55:19.823Z,8.10
2023-04-09T20:57:46.620Z,7.85
2023-04-09T21:00:13.482Z,8.65
2023-04-09T21:02:40.611Z,8.38
2023-04-09T21:05:19.497Z,9.30
2023-04-09T21:07:49.171Z,7.70
2023-04-09T21:10:15.947Z,8.35
2023-04-09T21:12:42.565Z,8.10
2023-04-09T21:15:10.304Z,8.82
2023-04-09T21:17:36.980Z,8.38
2023-04-09T21:20:04.610Z,9.32
2023-04-09T21:22:31.329Z,9.48
2023-04-09T21:24:58.125Z,9.45
2023-04-09T21:27:25.124Z,9.35
2023-04-09T21:29:53.601Z,10.40
2023-04-09T21:32:20.601Z,10.15
2023-04-09T21:34:50.181Z,9.77
2023-04-09T21:37:17.252Z,10.13
2023-04-09T21:39:59.275Z,10.73
2023-04-09T21:42:26.378Z,9.35
2023-04-09T21:44:59.031Z,10.27
2023-04-09T21:47:27.907Z,10.18
2023-04-09T21:49:54.797Z,10.80
2023-04-09T21:52:21.474Z,10.63
2023-04-09T21:54:48.140Z,10.02
2023-04-09T21:57:16.113Z,9.80
2023-04-09T21:59:43.331Z,9.73
2023-04-09T22:02:10.789Z,10.57
2023-04-09T22:04:37.754Z,10.10
2023-04-09T22:07:04.694Z,9.60
2023-04-09T22:09:31.550Z,11.00
2023-04-09T22:11:58.622Z,10.57
2023-04-09T22:14:29.104Z,10.18
2023-04-09T22:17:01.793Z,9.60
2023-04-09T22:19:29.815Z,10.75
2023-04-09T22:21:56.829Z,9.77
2023-04-09T22:24:27.254Z,11.27
2023-04-09T22:26:53.982Z,10.70
2023-04-09T22:29:20.743Z,11.23
2023-04-09T22:31:47.336Z,10.57
2023-04-09T22:34:20.714Z,10.75
2023-04-09T22:36:48.570Z,10.90
2023-04-09T22:39:15.532Z,10.52
2023-04-09T22:41:42.133Z,10.15
2023-04-09T22:44:09.538Z,11.00
2023-04-09T22:46:42.660Z,11.20
2023-04-09T22:49:09.869Z,10.70
2023-04-09T22:51:37.279Z,10.93
2023-04-09T22:54:04.794Z,11.43
2023-04-09T22:56:32.254Z,11.68
2023-04-09T22:58:59.234Z,11.27
2023-04-09T23:01:27.142Z,11.02
2023-04-09T23:03:54.099Z,10.85
2023-04-09T23:06:22.671Z,11.65
2023-04-09T23:08:50.133Z,11.77
2023-04-09T23:11:16.839Z,11.82
2023-04-09T23:13:43.506Z,11.30
2023-04-09T23:16:10.742Z,11.93
2023-04-09T23:18:37.454Z,12.02
2023-04-09T23:21:05.459Z,12.82
2023-04-09T23:23:32.063Z,11.98
2023-04-09T23:25:58.637Z,11.90
2023-04-09T23:28:25.245Z,12.68
2023-04-09T23:30:51.827Z,13.02
2023-04-09T23:33:18.381Z,12.63
2023-04-09T23:35:45.076Z,12.32
2023-04-09T23:38:11.772Z,12.75
2023-04-09T23:40:38.664Z,12.73
2023-04-09T23:43:05.676Z,13.05
2023-04-09T23:45:32.545Z,12.52
2023-04-09T23:47:59.617Z,11.98
2023-04-09T23:50:28.564Z,11.77
2023-04-09T23:53:00.148Z,12.05
2023-04-09T23:55:27.786Z,12.73
2023-04-09T23:57:54.437Z,12.32
